sensor_id;sensor_type;location;lat;lon;timestamp;temperature;humidity
70068;DHT22;57425;51.616;6.680;2022-12-18T00:01:03;-2.30;66.80
70068;DHT22;57425;51.616;6.680;2022-12-18T00:03:35;-2.30;66.80
70068;DHT22;57425;51.616;6.680;2022-12-18T00:06:01;-2.30;66.60
70068;DHT22;57425;51.616;6.680;2022-12-18T00:08:28;-2.30;66.60
70068;DHT22;57425;51.616;6.680;2022-12-18T00:10:55;-2.30;66.50
70068;DHT22;57425;51.616;6.680;2022-12-18T00:13:20;-2.30;66.50
70068;DHT22;57425;51.616;6.680;2022-12-18T00:15:46;-2.30;66.50
70068;DHT22;57425;51.616;6.680;2022-12-18T00:18:12;-2.30;66.40
70068;DHT22;57425;51.616;6.680;2022-12-18T00:20:39;-2.30;66.40
70068;DHT22;57425;51.616;6.680;2022-12-18T00:23:05;-2.30;66.40
70068;DHT22;57425;51.616;6.680;2022-12-18T00:25:35;-2.40;66.30
70068;DHT22;57425;51.616;6.680;2022-12-18T00:28:04;-2.40;66.20
70068;DHT22;57425;51.616;6.680;2022-12-18T00:30:29;-2.40;66.20
70068;DHT22;57425;51.616;6.680;2022-12-18T00:32:55;-2.40;66.20
70068;DHT22;57425;51.616;6.680;2022-12-18T00:35:21;-2.40;66.20
70068;DHT22;57425;51.616;6.680;2022-12-18T00:37:47;-2.40;66.20
70068;DHT22;57425;51.616;6.680;2022-12-18T00:40:12;-2.50;66.10
70068;DHT22;57425;51.616;6.680;2022-12-18T00:42:38;-2.40;66.10
70068;DHT22;57425;51.616;6.680;2022-12-18T00:45:29;-2.50;66.20
70068;DHT22;57425;51.616;6.680;2022-12-18T00:47:56;-2.60;66.40
70068;DHT22;57425;51.616;6.680;2022-12-18T00:50:23;-2.60;66.40
70068;DHT22;57425;51.616;6.680;2022-12-18T00:52:49;-2.60;66.30
70068;DHT22;57425;51.616;6.680;2022-12-18T00:55:15;-2.60;66.40
70068;DHT22;57425;51.616;6.680;2022-12-18T00:57:41;-2.60;66.50
70068;DHT22;57425;51.616;6.680;2022-12-18T01:00:09;-2.60;66.50
70068;DHT22;57425;51.616;6.680;2022-12-18T01:02:36;-2.60;66.50
70068;DHT22;57425;51.616;6.680;2022-12-18T01:05:01;-2.60;66.60
70068;DHT22;57425;51.616;6.680;2022-12-18T01:07:27;-2.60;66.60
70068;DHT22;57425;51.616;6.680;2022-12-18T01:09:53;-2.60;66.60
70068;DHT22;57425;51.616;6.680;2022-12-18T01:12:18;-2.60;66.60
70068;DHT22;57425;51.616;6.680;2022-12-18T01:14:44;-2.60;66.60
70068;DHT22;57425;51.616;6.680;2022-12-18T01:17:10;-2.70;66.50
70068;DHT22;57425;51.616;6.680;2022-12-18T01:19:35;-2.70;66.50
70068;DHT22;57425;51.616;6.680;2022-12-18T01:22:01;-2.70;66.50
70068;DHT22;57425;51.616;6.680;2022-12-18T01:24:27;-2.70;66.50
70068;DHT22;57425;51.616;6.680;2022-12-18T01:26:52;-2.70;66.50
70068;DHT22;57425;51.616;6.680;2022-12-18T01:29:18;-2.70;66.50
70068;DHT22;57425;51.616;6.680;2022-12-18T01:31:44;-2.70;66.50
70068;DHT22;57425;51.616;6.680;2022-12-18T01:34:09;-2.70;66.50
70068;DHT22;57425;51.616;6.680;2022-12-18T01:36:37;-2.70;66.40
70068;DHT22;57425;51.616;6.680;2022-12-18T01:39:06;-2.80;66.40
70068;DHT22;57425;51.616;6.680;2022-12-18T01:41:33;-2.80;66.40
70068;DHT22;57425;51.616;6.680;2022-12-18T01:49:55;-2.80;66.40
70068;DHT22;57425;51.616;6.680;2022-12-18T01:52:25;-2.80;66.50
70068;DHT22;57425;51.616;6.680;2022-12-18T01:54:53;-2.80;67.00
70068;DHT22;57425;51.616;6.680;2022-12-18T01:57:19;-2.90;66.40
70068;DHT22;57425;51.616;6.680;2022-12-18T01:59:49;-2.90;66.40
70068;DHT22;57425;51.616;6.680;2022-12-18T02:02:16;-2.90;66.30
70068;DHT22;57425;51.616;6.680;2022-12-18T02:04:42;-2.90;66.90
70068;DHT22;57425;51.616;6.680;2022-12-18T02:10:24;-2.90;66.90
70068;DHT22;57425;51.616;6.680;2022-12-18T02:13:19;-2.90;66.10
70068;DHT22;57425;51.616;6.680;2022-12-18T02:18:38;-3.00;66.30
70068;DHT22;57425;51.616;6.680;2022-12-18T02:26:36;-3.00;66.20
70068;DHT22;57425;51.616;6.680;2022-12-18T02:29:55;-3.00;66.10
70068;DHT22;57425;51.616;6.680;2022-12-18T02:32:00;-3.00;66.10
70068;DHT22;57425;51.616;6.680;2022-12-18T02:34:33;-3.00;66.20
70068;DHT22;57425;51.616;6.680;2022-12-18T02:37:01;-3.00;66.10
70068;DHT22;57425;51.616;6.680;2022-12-18T02:39:30;-3.10;66.00
70068;DHT22;57425;51.616;6.680;2022-12-18T02:41:57;-3.10;66.00
70068;DHT22;57425;51.616;6.680;2022-12-18T02:44:23;-3.10;66.00
70068;DHT22;57425;51.616;6.680;2022-12-18T02:46:50;-3.10;66.00
70068;DHT22;57425;51.616;6.680;2022-12-18T02:49:31;-3.10;65.90
70068;DHT22;57425;51.616;6.680;2022-12-18T03:00:08;-3.10;65.70
70068;DHT22;57425;51.616;6.680;2022-12-18T03:05:16;-3.20;65.70
70068;DHT22;57425;51.616;6.680;2022-12-18T03:10:30;-3.20;65.60
70068;DHT22;57425;51.616;6.680;2022-12-18T03:13:03;-3.20;65.70
70068;DHT22;57425;51.616;6.680;2022-12-18T03:15:34;-3.20;65.70
70068;DHT22;57425;51.616;6.680;2022-12-18T03:18:10;-3.20;65.90
70068;DHT22;57425;51.616;6.680;2022-12-18T03:20:39;-3.30;65.70
70068;DHT22;57425;51.616;6.680;2022-12-18T03:23:11;-3.30;65.70
70068;DHT22;57425;51.616;6.680;2022-12-18T03:25:40;-3.30;65.60
70068;DHT22;57425;51.616;6.680;2022-12-18T03:28:09;-3.30;65.60
70068;DHT22;57425;51.616;6.680;2022-12-18T03:30:38;-3.30;65.60
70068;DHT22;57425;51.616;6.680;2022-12-18T03:33:13;-3.30;65.50
70068;DHT22;57425;51.616;6.680;2022-12-18T03:35:42;-3.30;65.50
70068;DHT22;57425;51.616;6.680;2022-12-18T03:38:09;-3.30;65.50
70068;DHT22;57425;51.616;6.680;2022-12-18T03:40:56;-3.30;65.60
70068;DHT22;57425;51.616;6.680;2022-12-18T03:46:25;-3.40;65.50
70068;DHT22;57425;51.616;6.680;2022-12-18T03:49:08;-3.40;65.40
70068;DHT22;57425;51.616;6.680;2022-12-18T03:51:47;-3.40;65.40
70068;DHT22;57425;51.616;6.680;2022-12-18T03:54:16;-3.40;65.30
70068;DHT22;57425;51.616;6.680;2022-12-18T03:56:50;-3.40;65.40
70068;DHT22;57425;51.616;6.680;2022-12-18T03:59:16;-3.40;65.40
70068;DHT22;57425;51.616;6.680;2022-12-18T04:01:46;-3.50;65.60
70068;DHT22;57425;51.616;6.680;2022-12-18T04:04:14;-3.50;65.50
70068;DHT22;57425;51.616;6.680;2022-12-18T04:06:41;-3.50;65.50
70068;DHT22;57425;51.616;6.680;2022-12-18T04:09:07;-3.50;65.50
70068;DHT22;57425;51.616;6.680;2022-12-18T04:11:33;-3.50;65.40
70068;DHT22;57425;51.616;6.680;2022-12-18T04:13:58;-3.50;65.50
70068;DHT22;57425;51.616;6.680;2022-12-18T04:16:26;-3.50;65.60
70068;DHT22;57425;51.616;6.680;2022-12-18T04:18:51;-3.50;65.70
70068;DHT22;57425;51.616;6.680;2022-12-18T04:21:17;-3.50;65.70
70068;DHT22;57425;51.616;6.680;2022-12-18T04:23:43;-3.50;65.70
70068;DHT22;57425;51.616;6.680;2022-12-18T04:26:08;-3.60;65.60
70068;DHT22;57425;51.616;6.680;2022-12-18T04:28:34;-3.60;65.60
70068;DHT22;57425;51.616;6.680;2022-12-18T04:30:59;-3.60;66.20
70068;DHT22;57425;51.616;6.680;2022-12-18T04:33:25;-3.60;65.60
70068;DHT22;57425;51.616;6.680;2022-12-18T04:35:51;-3.60;65.60
70068;DHT22;57425;51.616;6.680;2022-12-18T04:38:16;-3.60;65.60
70068;DHT22;57425;51.616;6.680;2022-12-18T04:40:42;-3.60;65.60
70068;DHT22;57425;51.616;6.680;2022-12-18T04:43:08;-3.60;65.70
70068;DHT22;57425;51.616;6.680;2022-12-18T04:45:34;-3.70;65.50
70068;DHT22;57425;51.616;6.680;2022-12-18T04:48:01;-3.60;65.60
70068;DHT22;57425;51.616;6.680;2022-12-18T04:50:27;-3.60;65.70
70068;DHT22;57425;51.616;6.680;2022-12-18T04:52:52;-3.70;65.60
70068;DHT22;57425;51.616;6.680;2022-12-18T04:55:18;-3.70;66.20
70068;DHT22;57425;51.616;6.680;2022-12-18T04:57:44;-3.70;65.60
70068;DHT22;57425;51.616;6.680;2022-12-18T05:00:10;-3.70;65.60
70068;DHT22;57425;51.616;6.680;2022-12-18T05:02:36;-3.70;65.50
70068;DHT22;57425;51.616;6.680;2022-12-18T05:05:02;-3.70;65.50
70068;DHT22;57425;51.616;6.680;2022-12-18T05:07:27;-3.70;65.50
70068;DHT22;57425;51.616;6.680;2022-12-18T05:09:53;-3.70;65.60
70068;DHT22;57425;51.616;6.680;2022-12-18T05:12:18;-3.70;65.60
70068;DHT22;57425;51.616;6.680;2022-12-18T05:14:44;-3.70;65.50
70068;DHT22;57425;51.616;6.680;2022-12-18T05:17:10;-3.80;65.40
70068;DHT22;57425;51.616;6.680;2022-12-18T05:19:39;-3.70;65.50
70068;DHT22;57425;51.616;6.680;2022-12-18T05:22:07;-3.80;65.40
70068;DHT22;57425;51.616;6.680;2022-12-18T05:24:33;-3.80;65.40
70068;DHT22;57425;51.616;6.680;2022-12-18T05:26:59;-3.80;65.50
70068;DHT22;57425;51.616;6.680;2022-12-18T05:29:24;-3.80;65.40
70068;DHT22;57425;51.616;6.680;2022-12-18T05:31:50;-3.80;65.40
70068;DHT22;57425;51.616;6.680;2022-12-18T05:34:16;-3.90;65.30
70068;DHT22;57425;51.616;6.680;2022-12-18T05:36:42;-3.80;65.40
70068;DHT22;57425;51.616;6.680;2022-12-18T05:39:07;-3.90;65.30
70068;DHT22;57425;51.616;6.680;2022-12-18T05:41:33;-3.90;65.30
70068;DHT22;57425;51.616;6.680;2022-12-18T05:43:59;-3.80;65.30
70068;DHT22;57425;51.616;6.680;2022-12-18T05:46:24;-3.90;65.20
70068;DHT22;57425;51.616;6.680;2022-12-18T05:48:50;-3.90;65.20
70068;DHT22;57425;51.616;6.680;2022-12-18T05:51:18;-3.90;65.20
70068;DHT22;57425;51.616;6.680;2022-12-18T05:53:44;-3.90;65.20
70068;DHT22;57425;51.616;6.680;2022-12-18T05:56:13;-3.90;65.20
70068;DHT22;57425;51.616;6.680;2022-12-18T05:58:40;-3.90;65.10
70068;DHT22;57425;51.616;6.680;2022-12-18T06:01:18;-3.90;65.20
70068;DHT22;57425;51.616;6.680;2022-12-18T06:03:44;-3.90;65.10
70068;DHT22;57425;51.616;6.680;2022-12-18T06:06:24;-3.90;65.10
70068;DHT22;57425;51.616;6.680;2022-12-18T06:08:51;-3.90;65.20
70068;DHT22;57425;51.616;6.680;2022-12-18T06:11:19;-4.00;65.10
70068;DHT22;57425;51.616;6.680;2022-12-18T06:13:45;-4.00;65.00
70068;DHT22;57425;51.616;6.680;2022-12-18T06:16:12;-4.00;65.00
70068;DHT22;57425;51.616;6.680;2022-12-18T06:18:37;-4.00;65.10
70068;DHT22;57425;51.616;6.680;2022-12-18T06:21:03;-4.00;65.00
70068;DHT22;57425;51.616;6.680;2022-12-18T06:23:29;-4.00;65.00
70068;DHT22;57425;51.616;6.680;2022-12-18T06:25:54;-4.00;65.10
70068;DHT22;57425;51.616;6.680;2022-12-18T06:28:20;-4.00;65.60
70068;DHT22;57425;51.616;6.680;2022-12-18T06:30:47;-4.10;65.00
70068;DHT22;57425;51.616;6.680;2022-12-18T06:33:14;-4.10;65.00
70068;DHT22;57425;51.616;6.680;2022-12-18T06:35:40;-4.10;65.00
70068;DHT22;57425;51.616;6.680;2022-12-18T06:38:06;-4.10;65.00
70068;DHT22;57425;51.616;6.680;2022-12-18T06:40:32;-4.10;65.00
70068;DHT22;57425;51.616;6.680;2022-12-18T06:42:58;-4.10;65.00
70068;DHT22;57425;51.616;6.680;2022-12-18T06:45:23;-4.10;65.20
70068;DHT22;57425;51.616;6.680;2022-12-18T06:47:49;-4.10;64.90
70068;DHT22;57425;51.616;6.680;2022-12-18T06:50:15;-4.10;64.90
70068;DHT22;57425;51.616;6.680;2022-12-18T06:52:41;-4.10;65.00
70068;DHT22;57425;51.616;6.680;2022-12-18T06:55:09;-4.10;65.50
70068;DHT22;57425;51.616;6.680;2022-12-18T06:57:36;-4.10;64.90
70068;DHT22;57425;51.616;6.680;2022-12-18T07:00:03;-4.30;64.80
70068;DHT22;57425;51.616;6.680;2022-12-18T07:02:29;-4.20;64.90
70068;DHT22;57425;51.616;6.680;2022-12-18T07:04:55;-4.20;64.90
70068;DHT22;57425;51.616;6.680;2022-12-18T07:07:20;-4.20;65.40
70068;DHT22;57425;51.616;6.680;2022-12-18T07:09:46;-4.20;64.90
70068;DHT22;57425;51.616;6.680;2022-12-18T07:12:12;-4.20;64.90
70068;DHT22;57425;51.616;6.680;2022-12-18T07:14:37;-4.20;64.80
70068;DHT22;57425;51.616;6.680;2022-12-18T07:17:04;-4.20;64.80
70068;DHT22;57425;51.616;6.680;2022-12-18T07:19:29;-4.20;64.70
70068;DHT22;57425;51.616;6.680;2022-12-18T07:21:55;-4.20;64.70
70068;DHT22;57425;51.616;6.680;2022-12-18T07:24:21;-4.20;64.70
70068;DHT22;57425;51.616;6.680;2022-12-18T07:26:47;-4.20;64.70
70068;DHT22;57425;51.616;6.680;2022-12-18T07:29:12;-4.30;64.70
70068;DHT22;57425;51.616;6.680;2022-12-18T07:31:38;-4.30;64.70
70068;DHT22;57425;51.616;6.680;2022-12-18T07:34:04;-4.30;64.70
70068;DHT22;57425;51.616;6.680;2022-12-18T07:36:29;-4.30;64.80
70068;DHT22;57425;51.616;6.680;2022-12-18T07:38:55;-4.30;64.70
70068;DHT22;57425;51.616;6.680;2022-12-18T07:41:21;-4.30;65.30
70068;DHT22;57425;51.616;6.680;2022-12-18T07:43:47;-4.30;64.80
70068;DHT22;57425;51.616;6.680;2022-12-18T07:46:14;-4.30;65.40
70068;DHT22;57425;51.616;6.680;2022-12-18T07:48:44;-4.30;64.90
70068;DHT22;57425;51.616;6.680;2022-12-18T07:51:13;-4.40;64.80
70068;DHT22;57425;51.616;6.680;2022-12-18T07:53:39;-4.40;64.80
70068;DHT22;57425;51.616;6.680;2022-12-18T07:56:08;-4.40;64.80
70068;DHT22;57425;51.616;6.680;2022-12-18T07:58:34;-4.40;64.80
70068;DHT22;57425;51.616;6.680;2022-12-18T08:01:08;-4.40;64.80
70068;DHT22;57425;51.616;6.680;2022-12-18T08:03:34;-4.40;65.40
70068;DHT22;57425;51.616;6.680;2022-12-18T08:06:05;-4.40;64.90
70068;DHT22;57425;51.616;6.680;2022-12-18T08:08:32;-4.40;65.00
70068;DHT22;57425;51.616;6.680;2022-12-18T08:10:58;-4.40;65.10
70068;DHT22;57425;51.616;6.680;2022-12-18T08:13:25;-4.40;65.20
70068;DHT22;57425;51.616;6.680;2022-12-18T08:16:05;-4.40;65.20
70068;DHT22;57425;51.616;6.680;2022-12-18T08:18:38;-4.40;65.20
70068;DHT22;57425;51.616;6.680;2022-12-18T08:21:15;-4.40;65.20
70068;DHT22;57425;51.616;6.680;2022-12-18T08:23:41;-4.40;65.30
70068;DHT22;57425;51.616;6.680;2022-12-18T08:26:07;-4.50;65.30
70068;DHT22;57425;51.616;6.680;2022-12-18T08:28:33;-4.50;65.40
70068;DHT22;57425;51.616;6.680;2022-12-18T08:30:59;-4.50;65.40
70068;DHT22;57425;51.616;6.680;2022-12-18T08:33:25;-4.50;65.50
70068;DHT22;57425;51.616;6.680;2022-12-18T08:35:51;-4.50;65.60
70068;DHT22;57425;51.616;6.680;2022-12-18T08:38:17;-4.50;65.60
70068;DHT22;57425;51.616;6.680;2022-12-18T08:40:43;-4.50;65.70
70068;DHT22;57425;51.616;6.680;2022-12-18T08:43:10;-4.50;65.80
70068;DHT22;57425;51.616;6.680;2022-12-18T08:45:54;-4.50;65.90
70068;DHT22;57425;51.616;6.680;2022-12-18T08:48:20;-4.50;66.50
70068;DHT22;57425;51.616;6.680;2022-12-18T08:51:04;-4.50;66.00
70068;DHT22;57425;51.616;6.680;2022-12-18T08:53:30;-4.50;66.10
70068;DHT22;57425;51.616;6.680;2022-12-18T08:55:59;-4.60;66.20
70068;DHT22;57425;51.616;6.680;2022-12-18T08:58:24;-4.60;66.30
70068;DHT22;57425;51.616;6.680;2022-12-18T09:00:50;-4.60;66.30
70068;DHT22;57425;51.616;6.680;2022-12-18T09:03:17;-4.60;66.40
70068;DHT22;57425;51.616;6.680;2022-12-18T09:05:43;-4.60;66.40
70068;DHT22;57425;51.616;6.680;2022-12-18T09:08:11;-4.50;66.60
70068;DHT22;57425;51.616;6.680;2022-12-18T09:10:46;-4.60;66.60
70068;DHT22;57425;51.616;6.680;2022-12-18T09:13:12;-4.50;66.80
70068;DHT22;57425;51.616;6.680;2022-12-18T09:15:46;-4.60;66.70
70068;DHT22;57425;51.616;6.680;2022-12-18T09:18:14;-4.60;66.80
70068;DHT22;57425;51.616;6.680;2022-12-18T09:20:39;-4.60;66.90
70068;DHT22;57425;51.616;6.680;2022-12-18T09:23:06;-4.60;67.00
70068;DHT22;57425;51.616;6.680;2022-12-18T09:25:32;-4.60;67.00
70068;DHT22;57425;51.616;6.680;2022-12-18T09:28:02;-4.50;67.10
70068;DHT22;57425;51.616;6.680;2022-12-18T09:30:28;-4.50;67.20
70068;DHT22;57425;51.616;6.680;2022-12-18T09:32:54;-4.60;67.20
70068;DHT22;57425;51.616;6.680;2022-12-18T09:35:20;-4.60;67.40
70068;DHT22;57425;51.616;6.680;2022-12-18T09:37:45;-4.50;67.50
70068;DHT22;57425;51.616;6.680;2022-12-18T09:40:16;-4.50;67.60
70068;DHT22;57425;51.616;6.680;2022-12-18T09:42:46;-4.50;67.60
70068;DHT22;57425;51.616;6.680;2022-12-18T09:45:14;-4.50;67.60
70068;DHT22;57425;51.616;6.680;2022-12-18T09:47:42;-4.50;67.70
70068;DHT22;57425;51.616;6.680;2022-12-18T09:50:34;-4.50;67.80
70068;DHT22;57425;51.616;6.680;2022-12-18T09:53:10;-4.50;67.80
70068;DHT22;57425;51.616;6.680;2022-12-18T09:55:41;-4.50;67.80
70068;DHT22;57425;51.616;6.680;2022-12-18T09:58:39;-4.50;67.90
70068;DHT22;57425;51.616;6.680;2022-12-18T10:01:12;-4.50;68.00
70068;DHT22;57425;51.616;6.680;2022-12-18T10:03:39;-4.50;68.00
70068;DHT22;57425;51.616;6.680;2022-12-18T10:06:13;-4.50;68.00
70068;DHT22;57425;51.616;6.680;2022-12-18T10:22:14;-4.40;68.40
70068;DHT22;57425;51.616;6.680;2022-12-18T10:27:30;-4.50;68.30
70068;DHT22;57425;51.616;6.680;2022-12-18T10:29:57;-4.50;68.30
70068;DHT22;57425;51.616;6.680;2022-12-18T10:32:28;-4.50;68.30
70068;DHT22;57425;51.616;6.680;2022-12-18T10:34:56;-4.50;68.40
70068;DHT22;57425;51.616;6.680;2022-12-18T10:37:25;-4.40;68.50
70068;DHT22;57425;51.616;6.680;2022-12-18T10:40:11;-4.50;68.60
70068;DHT22;57425;51.616;6.680;2022-12-18T10:42:37;-4.40;68.70
70068;DHT22;57425;51.616;6.680;2022-12-18T10:45:10;-4.50;68.70
70068;DHT22;57425;51.616;6.680;2022-12-18T10:47:44;-4.40;68.80
70068;DHT22;57425;51.616;6.680;2022-12-18T10:50:31;-4.40;68.80
70068;DHT22;57425;51.616;6.680;2022-12-18T10:53:01;-4.40;68.80
70068;DHT22;57425;51.616;6.680;2022-12-18T10:55:44;-4.40;68.90
70068;DHT22;57425;51.616;6.680;2022-12-18T11:03:41;-4.30;69.10
70068;DHT22;57425;51.616;6.680;2022-12-18T11:06:18;-4.30;69.10
70068;DHT22;57425;51.616;6.680;2022-12-18T11:11:24;-4.30;69.20
70068;DHT22;57425;51.616;6.680;2022-12-18T11:14:06;-4.30;69.20
70068;DHT22;57425;51.616;6.680;2022-12-18T11:16:44;-4.30;69.30
70068;DHT22;57425;51.616;6.680;2022-12-18T11:19:29;-4.30;69.50
70068;DHT22;57425;51.616;6.680;2022-12-18T11:21:56;-4.30;69.50
70068;DHT22;57425;51.616;6.680;2022-12-18T11:24:33;-4.30;69.60
70068;DHT22;57425;51.616;6.680;2022-12-18T11:27:03;-4.20;69.80
70068;DHT22;57425;51.616;6.680;2022-12-18T11:29:35;-4.30;69.90
70068;DHT22;57425;51.616;6.680;2022-12-18T11:32:33;-4.20;70.10
70068;DHT22;57425;51.616;6.680;2022-12-18T11:38:17;-4.20;70.20
70068;DHT22;57425;51.616;6.680;2022-12-18T11:40:49;-4.20;70.30
70068;DHT22;57425;51.616;6.680;2022-12-18T11:46:01;-4.20;70.50
70068;DHT22;57425;51.616;6.680;2022-12-18T11:48:32;-4.20;70.50
70068;DHT22;57425;51.616;6.680;2022-12-18T11:51:01;-4.20;70.60
70068;DHT22;57425;51.616;6.680;2022-12-18T11:53:29;-4.20;70.70
70068;DHT22;57425;51.616;6.680;2022-12-18T12:02:14;-4.10;71.30
70068;DHT22;57425;51.616;6.680;2022-12-18T12:05:11;-4.00;71.40
70068;DHT22;57425;51.616;6.680;2022-12-18T12:23:39;-4.00;71.70
70068;DHT22;57425;51.616;6.680;2022-12-18T12:26:10;-3.90;71.80
70068;DHT22;57425;51.616;6.680;2022-12-18T12:31:30;-3.90;71.90
70068;DHT22;57425;51.616;6.680;2022-12-18T12:34:09;-3.90;72.00
70068;DHT22;57425;51.616;6.680;2022-12-18T12:39:37;-3.80;72.10
70068;DHT22;57425;51.616;6.680;2022-12-18T12:42:08;-3.80;72.20
70068;DHT22;57425;51.616;6.680;2022-12-18T12:44:57;-3.80;72.30
70068;DHT22;57425;51.616;6.680;2022-12-18T12:47:28;-3.80;72.30
70068;DHT22;57425;51.616;6.680;2022-12-18T12:49:56;-3.70;72.40
70068;DHT22;57425;51.616;6.680;2022-12-18T12:52:36;-3.70;72.90
70068;DHT22;57425;51.616;6.680;2022-12-18T12:55:04;-3.70;72.40
70068;DHT22;57425;51.616;6.680;2022-12-18T12:57:34;-3.70;72.40
70068;DHT22;57425;51.616;6.680;2022-12-18T13:00:20;-3.60;72.50
70068;DHT22;57425;51.616;6.680;2022-12-18T13:05:26;-3.70;72.50
70068;DHT22;57425;51.616;6.680;2022-12-18T13:08:02;-3.60;72.60
70068;DHT22;57425;51.616;6.680;2022-12-18T13:10:35;-3.60;72.60
70068;DHT22;57425;51.616;6.680;2022-12-18T13:13:08;-3.60;72.70
70068;DHT22;57425;51.616;6.680;2022-12-18T13:15:50;-3.60;72.70
70068;DHT22;57425;51.616;6.680;2022-12-18T13:18:28;-3.50;72.70
70068;DHT22;57425;51.616;6.680;2022-12-18T13:26:00;-3.40;72.70
70068;DHT22;57425;51.616;6.680;2022-12-18T13:34:21;-3.30;72.80
70068;DHT22;57425;51.616;6.680;2022-12-18T13:36:48;-3.30;73.30
70068;DHT22;57425;51.616;6.680;2022-12-18T13:41:44;-3.30;72.80
70068;DHT22;57425;51.616;6.680;2022-12-18T13:44:33;-3.30;72.90
70068;DHT22;57425;51.616;6.680;2022-12-18T13:47:01;-3.20;73.00
70068;DHT22;57425;51.616;6.680;2022-12-18T13:49:38;-3.20;73.10
70068;DHT22;57425;51.616;6.680;2022-12-18T13:52:20;-3.20;73.10
70068;DHT22;57425;51.616;6.680;2022-12-18T13:54:52;-3.20;73.10
70068;DHT22;57425;51.616;6.680;2022-12-18T13:57:34;-3.20;73.10
70068;DHT22;57425;51.616;6.680;2022-12-18T14:00:32;-3.10;73.20
70068;DHT22;57425;51.616;6.680;2022-12-18T14:02:58;-3.10;73.10
70068;DHT22;57425;51.616;6.680;2022-12-18T14:05:31;-3.10;73.30
70068;DHT22;57425;51.616;6.680;2022-12-18T14:08:13;-3.00;73.30
70068;DHT22;57425;51.616;6.680;2022-12-18T14:10:43;-2.90;73.40
70068;DHT22;57425;51.616;6.680;2022-12-18T14:13:11;-3.00;74.00
70068;DHT22;57425;51.616;6.680;2022-12-18T14:15:42;-2.90;73.50
70068;DHT22;57425;51.616;6.680;2022-12-18T14:20:52;-2.90;73.60
70068;DHT22;57425;51.616;6.680;2022-12-18T14:25:54;-2.80;73.70
70068;DHT22;57425;51.616;6.680;2022-12-18T14:28:20;-2.80;73.70
70068;DHT22;57425;51.616;6.680;2022-12-18T14:30:48;-2.80;73.70
70068;DHT22;57425;51.616;6.680;2022-12-18T14:33:17;-2.70;73.80
70068;DHT22;57425;51.616;6.680;2022-12-18T14:41:00;-2.70;73.90
70068;DHT22;57425;51.616;6.680;2022-12-18T14:43:27;-2.70;74.00
70068;DHT22;57425;51.616;6.680;2022-12-18T14:45:54;-2.70;74.00
70068;DHT22;57425;51.616;6.680;2022-12-18T14:50:59;-2.60;74.10
70068;DHT22;57425;51.616;6.680;2022-12-18T14:53:45;-2.60;74.00
70068;DHT22;57425;51.616;6.680;2022-12-18T14:56:32;-2.60;74.00
70068;DHT22;57425;51.616;6.680;2022-12-18T14:59:02;-2.50;74.10
70068;DHT22;57425;51.616;6.680;2022-12-18T15:03:55;-2.50;74.10
70068;DHT22;57425;51.616;6.680;2022-12-18T15:06:31;-2.50;74.10
70068;DHT22;57425;51.616;6.680;2022-12-18T15:09:01;-2.50;74.10
70068;DHT22;57425;51.616;6.680;2022-12-18T15:11:45;-2.50;74.10
70068;DHT22;57425;51.616;6.680;2022-12-18T15:14:32;-2.40;74.20
70068;DHT22;57425;51.616;6.680;2022-12-18T15:16:59;-2.40;74.20
70068;DHT22;57425;51.616;6.680;2022-12-18T15:19:34;-2.40;74.80
70068;DHT22;57425;51.616;6.680;2022-12-18T15:22:01;-2.40;74.30
70068;DHT22;57425;51.616;6.680;2022-12-18T15:24:30;-2.40;74.30
70068;DHT22;57425;51.616;6.680;2022-12-18T15:26:56;-2.30;74.30
70068;DHT22;57425;51.616;6.680;2022-12-18T15:29:22;-2.30;74.30
70068;DHT22;57425;51.616;6.680;2022-12-18T15:32:05;-2.30;74.40
70068;DHT22;57425;51.616;6.680;2022-12-18T15:34:32;-2.30;74.30
70068;DHT22;57425;51.616;6.680;2022-12-18T15:36:59;-2.30;74.40
70068;DHT22;57425;51.616;6.680;2022-12-18T15:39:25;-2.20;74.40
70068;DHT22;57425;51.616;6.680;2022-12-18T15:41:51;-2.20;74.40
70068;DHT22;57425;51.616;6.680;2022-12-18T15:44:35;-2.20;74.40
70068;DHT22;57425;51.616;6.680;2022-12-18T15:47:02;-2.20;74.50
70068;DHT22;57425;51.616;6.680;2022-12-18T15:49:28;-2.20;74.50
70068;DHT22;57425;51.616;6.680;2022-12-18T15:51:56;-2.10;74.60
70068;DHT22;57425;51.616;6.680;2022-12-18T15:54:23;-2.20;75.10
70068;DHT22;57425;51.616;6.680;2022-12-18T15:57:09;-2.10;74.60
70068;DHT22;57425;51.616;6.680;2022-12-18T15:59:52;-2.10;74.60
70068;DHT22;57425;51.616;6.680;2022-12-18T16:02:22;-2.10;74.60
70068;DHT22;57425;51.616;6.680;2022-12-18T16:04:49;-2.10;74.60
70068;DHT22;57425;51.616;6.680;2022-12-18T16:07:15;-2.10;74.60
70068;DHT22;57425;51.616;6.680;2022-12-18T16:09:41;-2.10;74.60
70068;DHT22;57425;51.616;6.680;2022-12-18T16:12:19;-2.00;74.70
70068;DHT22;57425;51.616;6.680;2022-12-18T16:14:46;-2.00;74.70
70068;DHT22;57425;51.616;6.680;2022-12-18T16:17:12;-2.00;74.70
70068;DHT22;57425;51.616;6.680;2022-12-18T16:19:38;-2.00;74.70
70068;DHT22;57425;51.616;6.680;2022-12-18T16:22:04;-2.00;74.70
70068;DHT22;57425;51.616;6.680;2022-12-18T16:24:32;-2.00;74.80
70068;DHT22;57425;51.616;6.680;2022-12-18T16:26:59;-2.00;74.70
70068;DHT22;57425;51.616;6.680;2022-12-18T16:29:26;-1.90;74.80
70068;DHT22;57425;51.616;6.680;2022-12-18T16:32:01;-1.90;74.80
70068;DHT22;57425;51.616;6.680;2022-12-18T16:34:32;-1.90;74.80
70068;DHT22;57425;51.616;6.680;2022-12-18T16:37:04;-1.90;74.90
70068;DHT22;57425;51.616;6.680;2022-12-18T16:39:30;-1.90;74.80
70068;DHT22;57425;51.616;6.680;2022-12-18T16:41:56;-1.90;74.80
70068;DHT22;57425;51.616;6.680;2022-12-18T16:44:22;-1.80;74.90
70068;DHT22;57425;51.616;6.680;2022-12-18T16:46:48;-1.80;74.90
70068;DHT22;57425;51.616;6.680;2022-12-18T16:49:15;-1.80;74.90
70068;DHT22;57425;51.616;6.680;2022-12-18T16:51:41;-1.80;75.00
70068;DHT22;57425;51.616;6.680;2022-12-18T16:54:08;-1.80;75.00
70068;DHT22;57425;51.616;6.680;2022-12-18T16:56:33;-1.80;75.00
70068;DHT22;57425;51.616;6.680;2022-12-18T16:59:00;-1.80;75.00
70068;DHT22;57425;51.616;6.680;2022-12-18T17:01:28;-1.80;75.00
70068;DHT22;57425;51.616;6.680;2022-12-18T17:03:59;-1.80;75.10
70068;DHT22;57425;51.616;6.680;2022-12-18T17:06:26;-1.80;75.10
70068;DHT22;57425;51.616;6.680;2022-12-18T17:09:12;-1.70;75.10
70068;DHT22;57425;51.616;6.680;2022-12-18T17:11:41;-1.70;75.10
70068;DHT22;57425;51.616;6.680;2022-12-18T17:14:10;-1.70;75.10
70068;DHT22;57425;51.616;6.680;2022-12-18T17:16:36;-1.70;75.20
70068;DHT22;57425;51.616;6.680;2022-12-18T17:19:02;-1.70;75.20
70068;DHT22;57425;51.616;6.680;2022-12-18T17:21:28;-1.70;75.20
70068;DHT22;57425;51.616;6.680;2022-12-18T17:23:53;-1.70;75.20
70068;DHT22;57425;51.616;6.680;2022-12-18T17:26:19;-1.70;75.20
70068;DHT22;57425;51.616;6.680;2022-12-18T17:28:45;-1.60;75.30
70068;DHT22;57425;51.616;6.680;2022-12-18T17:31:19;-1.60;75.40
70068;DHT22;57425;51.616;6.680;2022-12-18T17:33:45;-1.50;75.60
70068;DHT22;57425;51.616;6.680;2022-12-18T17:36:11;-1.40;75.50
70068;DHT22;57425;51.616;6.680;2022-12-18T17:38:42;-1.30;75.40
70068;DHT22;57425;51.616;6.680;2022-12-18T17:41:10;-1.30;75.30
70068;DHT22;57425;51.616;6.680;2022-12-18T17:43:36;-1.20;75.30
70068;DHT22;57425;51.616;6.680;2022-12-18T17:46:05;-1.20;75.20
70068;DHT22;57425;51.616;6.680;2022-12-18T17:48:31;-1.10;75.20